sensor_id;sensor_type;location;lat;lon;timestamp;P1;durP1;ratioP1;P2;durP2;ratioP2
11279;SDS011;5696;50.928;6.960;2023-02-03T06:04:23;8.02;;;2.85;;
11279;SDS011;5696;50.928;6.960;2023-02-03T06:06:49;10.82;;;2.80;;
11279;SDS011;5696;50.928;6.960;2023-02-03T06:09:14;4.95;;;2.40;;
11279;SDS011;5696;50.928;6.960;2023-02-03T06:11:40;7.95;;;2.40;;
11279;SDS011;5696;50.928;6.960;2023-02-03T06:14:06;6.15;;;2.40;;
11279;SDS011;5696;50.928;6.960;2023-02-03T06:16:32;4.07;;;2.10;;
11279;SDS011;5696;50.928;6.960;2023-02-03T06:18:58;5.20;;;2.25;;
11279;SDS011;5696;50.928;6.960;2023-02-03T06:21:25;3.88;;;2.13;;
11279;SDS011;5696;50.928;6.960;2023-02-03T06:23:51;6.93;;;2.08;;
11279;SDS011;5696;50.928;6.960;2023-02-03T06:26:16;6.60;;;3.75;;
11279;SDS011;5696;50.928;6.960;2023-02-03T06:28:42;5.47;;;2.47;;
11279;SDS011;5696;50.928;6.960;2023-02-03T06:31:08;4.63;;;2.15;;
11279;SDS011;5696;50.928;6.960;2023-02-03T06:33:37;6.05;;;2.03;;
11279;SDS011;5696;50.928;6.960;2023-02-03T06:36:02;5.70;;;2.63;;
11279;SDS011;5696;50.928;6.960;2023-02-03T06:38:28;7.10;;;2.10;;
11279;SDS011;5696;50.928;6.960;2023-02-03T06:40:54;4.30;;;2.17;;
11279;SDS011;5696;50.928;6.960;2023-02-03T06:43:19;5.55;;;2.20;;
11279;SDS011;5696;50.928;6.960;2023-02-03T06:45:46;5.15;;;2.25;;
11279;SDS011;5696;50.928;6.960;2023-02-03T06:48:12;5.95;;;2.30;;
11279;SDS011;5696;50.928;6.960;2023-02-03T06:50:38;6.20;;;2.28;;
11279;SDS011;5696;50.928;6.960;2023-02-03T06:53:04;5.68;;;2.10;;
11279;SDS011;5696;50.928;6.960;2023-02-03T06:55:30;4.30;;;2.00;;
11279;SDS011;5696;50.928;6.960;2023-02-03T06:57:56;6.88;;;2.60;;
11279;SDS011;5696;50.928;6.960;2023-02-03T07:00:21;4.97;;;2.17;;
11279;SDS011;5696;50.928;6.960;2023-02-03T07:02:55;6.43;;;2.35;;
11279;SDS011;5696;50.928;6.960;2023-02-03T07:05:22;6.03;;;2.25;;
11279;SDS011;5696;50.928;6.960;2023-02-03T07:07:48;4.88;;;2.10;;
11279;SDS011;5696;50.928;6.960;2023-02-03T07:10:14;4.80;;;2.38;;
11279;SDS011;5696;50.928;6.960;2023-02-03T07:12:40;6.65;;;2.40;;
11279;SDS011;5696;50.928;6.960;2023-02-03T07:15:06;4.50;;;2.72;;
11279;SDS011;5696;50.928;6.960;2023-02-03T07:17:32;2.67;;;1.80;;
11279;SDS011;5696;50.928;6.960;2023-02-03T07:19:58;7.18;;;2.22;;
11279;SDS011;5696;50.928;6.960;2023-02-03T07:22:24;6.20;;;2.15;;
11279;SDS011;5696;50.928;6.960;2023-02-03T07:24:49;5.05;;;3.13;;
11279;SDS011;5696;50.928;6.960;2023-02-03T07:27:15;6.22;;;2.60;;
11279;SDS011;5696;50.928;6.960;2023-02-03T07:29:41;5.13;;;2.75;;
11279;SDS011;5696;50.928;6.960;2023-02-03T07:32:06;6.35;;;1.98;;
11279;SDS011;5696;50.928;6.960;2023-02-03T07:34:32;5.75;;;2.75;;
11279;SDS011;5696;50.928;6.960;2023-02-03T07:36:58;2.95;;;1.88;;
11279;SDS011;5696;50.928;6.960;2023-02-03T07:39:23;7.03;;;2.38;;
11279;SDS011;5696;50.928;6.960;2023-02-03T07:41:49;6.45;;;1.95;;
11279;SDS011;5696;50.928;6.960;2023-02-03T07:44:15;5.50;;;2.08;;
11279;SDS011;5696;50.928;6.960;2023-02-03T07:46:40;4.82;;;2.20;;
11279;SDS011;5696;50.928;6.960;2023-02-03T07:49:11;6.53;;;2.15;;
11279;SDS011;5696;50.928;6.960;2023-02-03T07:51:38;8.57;;;2.15;;
11279;SDS011;5696;50.928;6.960;2023-02-03T07:54:03;4.25;;;1.90;;
11279;SDS011;5696;50.928;6.960;2023-02-03T07:56:29;4.97;;;1.92;;
11279;SDS011;5696;50.928;6.960;2023-02-03T07:58:57;3.38;;;1.80;;
11279;SDS011;5696;50.928;6.960;2023-02-03T08:01:23;4.38;;;1.65;;
11279;SDS011;5696;50.928;6.960;2023-02-03T08:03:49;5.63;;;2.00;;
11279;SDS011;5696;50.928;6.960;2023-02-03T08:06:15;4.03;;;1.77;;
11279;SDS011;5696;50.928;6.960;2023-02-03T08:08:40;2.05;;;1.65;;
11279;SDS011;5696;50.928;6.960;2023-02-03T08:11:06;4.28;;;2.20;;
11279;SDS011;5696;50.928;6.960;2023-02-03T08:13:32;3.35;;;1.70;;
11279;SDS011;5696;50.928;6.960;2023-02-03T08:15:58;4.75;;;2.00;;
11279;SDS011;5696;50.928;6.960;2023-02-03T08:18:23;5.40;;;1.90;;
11279;SDS011;5696;50.928;6.960;2023-02-03T08:20:49;5.78;;;2.03;;
11279;SDS011;5696;50.928;6.960;2023-02-03T08:23:15;4.50;;;1.83;;
11279;SDS011;5696;50.928;6.960;2023-02-03T08:25:41;3.60;;;1.70;;
11279;SDS011;5696;50.928;6.960;2023-02-03T08:28:06;5.18;;;1.88;;
11279;SDS011;5696;50.928;6.960;2023-02-03T08:30:32;4.57;;;2.00;;
11279;SDS011;5696;50.928;6.960;2023-02-03T08:32:57;2.05;;;1.27;;
11279;SDS011;5696;50.928;6.960;2023-02-03T08:35:23;2.60;;;1.60;;
11279;SDS011;5696;50.928;6.960;2023-02-03T08:37:49;5.70;;;1.80;;
11279;SDS011;5696;50.928;6.960;2023-02-03T08:40:15;5.00;;;1.40;;
11279;SDS011;5696;50.928;6.960;2023-02-03T08:42:41;6.70;;;1.67;;
11279;SDS011;5696;50.928;6.960;2023-02-03T08:45:07;2.08;;;1.23;;
11279;SDS011;5696;50.928;6.960;2023-02-03T08:47:33;2.80;;;1.48;;
11279;SDS011;5696;50.928;6.960;2023-02-03T08:50:00;6.20;;;1.92;;
11279;SDS011;5696;50.928;6.960;2023-02-03T08:52:27;4.88;;;1.73;;
11279;SDS011;5696;50.928;6.960;2023-02-03T08:54:53;2.33;;;1.63;;
11279;SDS011;5696;50.928;6.960;2023-02-03T08:57:18;5.13;;;1.63;;
11279;SDS011;5696;50.928;6.960;2023-02-03T08:59:44;4.07;;;1.58;;
11279;SDS011;5696;50.928;6.960;2023-02-03T09:02:12;2.25;;;1.70;;
11279;SDS011;5696;50.928;6.960;2023-02-03T09:04:40;3.65;;;1.77;;
11279;SDS011;5696;50.928;6.960;2023-02-03T09:07:06;3.72;;;1.83;;
11279;SDS011;5696;50.928;6.960;2023-02-03T09:09:32;1.85;;;1.48;;
11279;SDS011;5696;50.928;6.960;2023-02-03T09:11:58;5.03;;;1.80;;
11279;SDS011;5696;50.928;6.960;2023-02-03T09:14:27;4.15;;;1.63;;
11279;SDS011;5696;50.928;6.960;2023-02-03T09:16:54;3.42;;;1.77;;
11279;SDS011;5696;50.928;6.960;2023-02-03T09:19:19;3.38;;;1.70;;
11279;SDS011;5696;50.928;6.960;2023-02-03T09:21:45;7.35;;;1.98;;
11279;SDS011;5696;50.928;6.960;2023-02-03T09:24:13;4.95;;;2.03;;
11279;SDS011;5696;50.928;6.960;2023-02-03T09:26:41;4.28;;;1.65;;
11279;SDS011;5696;50.928;6.960;2023-02-03T09:29:07;3.22;;;1.65;;
11279;SDS011;5696;50.928;6.960;2023-02-03T09:31:33;6.82;;;2.25;;
11279;SDS011;5696;50.928;6.960;2023-02-03T09:33:58;5.75;;;1.90;;
11279;SDS011;5696;50.928;6.960;2023-02-03T09:36:24;3.05;;;2.22;;
11279;SDS011;5696;50.928;6.960;2023-02-03T09:38:50;5.10;;;2.20;;
11279;SDS011;5696;50.928;6.960;2023-02-03T09:46:39;5.47;;;2.50;;
11279;SDS011;5696;50.928;6.960;2023-02-03T09:54:48;7.22;;;1.90;;
11279;SDS011;5696;50.928;6.960;2023-02-03T09:57:27;3.28;;;2.00;;
11279;SDS011;5696;50.928;6.960;2023-02-03T09:59:56;6.65;;;2.15;;
11279;SDS011;5696;50.928;6.960;2023-02-03T10:05:17;4.85;;;1.70;;
11279;SDS011;5696;50.928;6.960;2023-02-03T10:07:57;2.75;;;1.77;;
11279;SDS011;5696;50.928;6.960;2023-02-03T10:10:32;3.75;;;2.20;;
11279;SDS011;5696;50.928;6.960;2023-02-03T10:18:33;3.80;;;2.15;;
11279;SDS011;5696;50.928;6.960;2023-02-03T10:21:15;3.97;;;1.98;;
11279;SDS011;5696;50.928;6.960;2023-02-03T10:23:53;2.75;;;2.15;;
11279;SDS011;5696;50.928;6.960;2023-02-03T10:26:22;4.50;;;2.47;;
11279;SDS011;5696;50.928;6.960;2023-02-03T10:28:53;6.22;;;2.42;;
11279;SDS011;5696;50.928;6.960;2023-02-03T10:31:29;4.88;;;2.50;;
11279;SDS011;5696;50.928;6.960;2023-02-03T10:34:00;3.58;;;2.20;;
11279;SDS011;5696;50.928;6.960;2023-02-03T10:42:05;5.05;;;2.50;;
11279;SDS011;5696;50.928;6.960;2023-02-03T10:44:35;4.18;;;2.70;;
11279;SDS011;5696;50.928;6.960;2023-02-03T10:49:50;4.00;;;2.65;;
11279;SDS011;5696;50.928;6.960;2023-02-03T10:52:25;6.03;;;2.92;;
11279;SDS011;5696;50.928;6.960;2023-02-03T10:54:56;4.10;;;2.50;;
11279;SDS011;5696;50.928;6.960;2023-02-03T10:57:23;5.30;;;2.67;;
11279;SDS011;5696;50.928;6.960;2023-02-03T10:59:51;7.00;;;2.90;;
11279;SDS011;5696;50.928;6.960;2023-02-03T11:02:32;3.95;;;2.75;;
11279;SDS011;5696;50.928;6.960;2023-02-03T11:05:08;5.35;;;2.83;;
11279;SDS011;5696;50.928;6.960;2023-02-03T11:07:41;2.72;;;2.45;;
11279;SDS011;5696;50.928;6.960;2023-02-03T11:13:42;4.13;;;2.90;;
11279;SDS011;5696;50.928;6.960;2023-02-03T11:15:52;3.10;;;2.80;;
11279;SDS011;5696;50.928;6.960;2023-02-03T11:24:05;3.13;;;2.78;;
11279;SDS011;5696;50.928;6.960;2023-02-03T11:26:47;3.33;;;3.00;;
11279;SDS011;5696;50.928;6.960;2023-02-03T11:29:23;4.53;;;2.80;;
11279;SDS011;5696;50.928;6.960;2023-02-03T11:31:53;6.43;;;3.40;;
11279;SDS011;5696;50.928;6.960;2023-02-03T11:34:23;8.80;;;3.55;;
11279;SDS011;5696;50.928;6.960;2023-02-03T11:36:53;4.57;;;3.50;;
11279;SDS011;5696;50.928;6.960;2023-02-03T11:39:25;5.28;;;3.58;;
11279;SDS011;5696;50.928;6.960;2023-02-03T11:41:51;5.03;;;3.70;;
11279;SDS011;5696;50.928;6.960;2023-02-03T11:44:19;4.38;;;3.83;;
11279;SDS011;5696;50.928;6.960;2023-02-03T11:46:54;4.82;;;3.88;;
11279;SDS011;5696;50.928;6.960;2023-02-03T11:57:55;6.30;;;4.72;;
11279;SDS011;5696;50.928;6.960;2023-02-03T12:09:10;6.07;;;4.85;;
11279;SDS011;5696;50.928;6.960;2023-02-03T12:19:48;6.15;;;5.57;;
11279;SDS011;5696;50.928;6.960;2023-02-03T12:22:35;6.05;;;5.38;;
11279;SDS011;5696;50.928;6.960;2023-02-03T12:33:46;8.27;;;6.45;;
11279;SDS011;5696;50.928;6.960;2023-02-03T12:36:21;7.13;;;6.00;;
11279;SDS011;5696;50.928;6.960;2023-02-03T12:38:53;6.75;;;6.05;;
11279;SDS011;5696;50.928;6.960;2023-02-03T12:41:27;7.18;;;6.28;;
11279;SDS011;5696;50.928;6.960;2023-02-03T12:44:20;9.07;;;6.40;;
11279;SDS011;5696;50.928;6.960;2023-02-03T12:46:55;7.32;;;5.88;;
11279;SDS011;5696;50.928;6.960;2023-02-03T12:49:27;7.65;;;6.20;;
11279;SDS011;5696;50.928;6.960;2023-02-03T12:51:57;7.07;;;6.38;;
11279;SDS011;5696;50.928;6.960;2023-02-03T12:56:49;9.23;;;6.28;;
11279;SDS011;5696;50.928;6.960;2023-02-03T12:59:20;8.73;;;6.28;;
11279;SDS011;5696;50.928;6.960;2023-02-03T13:01:51;6.93;;;6.30;;
11279;SDS011;5696;50.928;6.960;2023-02-03T13:07:07;8.88;;;6.18;;
11279;SDS011;5696;50.928;6.960;2023-02-03T13:09:57;8.23;;;6.68;;
11279;SDS011;5696;50.928;6.960;2023-02-03T13:12:43;7.13;;;6.43;;
11279;SDS011;5696;50.928;6.960;2023-02-03T13:17:45;7.22;;;6.28;;
11279;SDS011;5696;50.928;6.960;2023-02-03T13:20:21;8.70;;;6.25;;
11279;SDS011;5696;50.928;6.960;2023-02-03T13:22:49;9.18;;;7.00;;
11279;SDS011;5696;50.928;6.960;2023-02-03T13:44:41;12.77;;;8.85;;
11279;SDS011;5696;50.928;6.960;2023-02-03T13:47:15;10.52;;;8.98;;
11279;SDS011;5696;50.928;6.960;2023-02-03T13:49:48;10.93;;;8.55;;
11279;SDS011;5696;50.928;6.960;2023-02-03T13:52:28;11.50;;;8.98;;
11279;SDS011;5696;50.928;6.960;2023-02-03T13:55:05;12.15;;;8.85;;
11279;SDS011;5696;50.928;6.960;2023-02-03T13:57:32;11.55;;;8.85;;
11279;SDS011;5696;50.928;6.960;2023-02-03T14:00:00;10.82;;;9.73;;
11279;SDS011;5696;50.928;6.960;2023-02-03T14:02:29;14.32;;;9.77;;
11279;SDS011;5696;50.928;6.960;2023-02-03T14:05:06;10.90;;;9.13;;
11279;SDS011;5696;50.928;6.960;2023-02-03T14:07:53;11.20;;;9.55;;
11279;SDS011;5696;50.928;6.960;2023-02-03T14:10:20;10.20;;;9.20;;
11279;SDS011;5696;50.928;6.960;2023-02-03T14:15:28;12.77;;;9.45;;
11279;SDS011;5696;50.928;6.960;2023-02-03T14:17:57;13.60;;;9.23;;
11279;SDS011;5696;50.928;6.960;2023-02-03T14:20:36;12.07;;;8.85;;
11279;SDS011;5696;50.928;6.960;2023-02-03T14:25:41;8.75;;;7.85;;
11279;SDS011;5696;50.928;6.960;2023-02-03T14:28:15;9.73;;;7.90;;
11279;SDS011;5696;50.928;6.960;2023-02-03T14:34:04;8.45;;;7.38;;
11279;SDS011;5696;50.928;6.960;2023-02-03T14:44:22;9.40;;;7.55;;
11279;SDS011;5696;50.928;6.960;2023-02-03T14:52:48;9.52;;;6.80;;
11279;SDS011;5696;50.928;6.960;2023-02-03T14:57:54;8.50;;;6.82;;
11279;SDS011;5696;50.928;6.960;2023-02-03T15:00:26;9.27;;;5.50;;
11279;SDS011;5696;50.928;6.960;2023-02-03T15:11:26;6.00;;;5.40;;
11279;SDS011;5696;50.928;6.960;2023-02-03T15:14:12;5.90;;;5.00;;
11279;SDS011;5696;50.928;6.960;2023-02-03T15:16:44;8.02;;;4.72;;
11279;SDS011;5696;50.928;6.960;2023-02-03T15:19:16;6.72;;;5.07;;
11279;SDS011;5696;50.928;6.960;2023-02-03T15:21:43;7.43;;;4.53;;
11279;SDS011;5696;50.928;6.960;2023-02-03T15:24:12;7.60;;;4.25;;
11279;SDS011;5696;50.928;6.960;2023-02-03T15:26:46;7.28;;;4.53;;
11279;SDS011;5696;50.928;6.960;2023-02-03T15:29:18;9.15;;;4.50;;
11279;SDS011;5696;50.928;6.960;2023-02-03T15:32:00;7.55;;;3.90;;
11279;SDS011;5696;50.928;6.960;2023-02-03T15:34:38;5.63;;;4.35;;
11279;SDS011;5696;50.928;6.960;2023-02-03T15:37:27;4.55;;;3.55;;
11279;SDS011;5696;50.928;6.960;2023-02-03T15:40:01;9.80;;;4.47;;
11279;SDS011;5696;50.928;6.960;2023-02-03T15:45:27;7.47;;;4.55;;
11279;SDS011;5696;50.928;6.960;2023-02-03T15:53:03;6.93;;;3.95;;
11279;SDS011;5696;50.928;6.960;2023-02-03T15:55:40;8.98;;;4.07;;
11279;SDS011;5696;50.928;6.960;2023-02-03T15:58:19;4.43;;;3.85;;
11279;SDS011;5696;50.928;6.960;2023-02-03T16:00:49;6.88;;;3.90;;
11279;SDS011;5696;50.928;6.960;2023-02-03T16:03:44;9.48;;;4.40;;
11279;SDS011;5696;50.928;6.960;2023-02-03T16:06:29;5.60;;;3.95;;
11279;SDS011;5696;50.928;6.960;2023-02-03T16:09:03;5.53;;;4.22;;
11279;SDS011;5696;50.928;6.960;2023-02-03T16:11:37;6.40;;;3.92;;
11279;SDS011;5696;50.928;6.960;2023-02-03T16:14:09;5.20;;;4.03;;
11279;SDS011;5696;50.928;6.960;2023-02-03T16:16:39;6.50;;;4.18;;
11279;SDS011;5696;50.928;6.960;2023-02-03T16:19:13;10.23;;;4.45;;
11279;SDS011;5696;50.928;6.960;2023-02-03T16:29:50;7.43;;;4.78;;
11279;SDS011;5696;50.928;6.960;2023-02-03T16:32:34;7.72;;;5.10;;
11279;SDS011;5696;50.928;6.960;2023-02-03T16:35:19;9.35;;;5.18;;
11279;SDS011;5696;50.928;6.960;2023-02-03T16:38:07;8.07;;;4.90;;
11279;SDS011;5696;50.928;6.960;2023-02-03T16:40:58;13.57;;;5.35;;
11279;SDS011;5696;50.928;6.960;2023-02-03T16:43:42;10.32;;;5.80;;
11279;SDS011;5696;50.928;6.960;2023-02-03T16:46:27;8.52;;;5.45;;
11279;SDS011;5696;50.928;6.960;2023-02-03T16:49:11;9.80;;;5.53;;
11279;SDS011;5696;50.928;6.960;2023-02-03T16:51:56;9.35;;;4.82;;
11279;SDS011;5696;50.928;6.960;2023-02-03T16:54:21;7.60;;;4.70;;
11279;SDS011;5696;50.928;6.960;2023-02-03T16:56:48;7.05;;;4.30;;
11279;SDS011;5696;50.928;6.960;2023-02-03T16:59:16;8.57;;;4.50;;
11279;SDS011;5696;50.928;6.960;2023-02-03T17:01:41;9.15;;;4.55;;
11279;SDS011;5696;50.928;6.960;2023-02-03T17:04:08;11.52;;;4.75;;
11279;SDS011;5696;50.928;6.960;2023-02-03T17:06:38;9.90;;;4.40;;
11279;SDS011;5696;50.928;6.960;2023-02-03T17:09:05;8.77;;;4.90;;
11279;SDS011;5696;50.928;6.960;2023-02-03T17:11:31;10.02;;;4.20;;
11279;SDS011;5696;50.928;6.960;2023-02-03T17:13:56;8.60;;;4.28;;
11279;SDS011;5696;50.928;6.960;2023-02-03T17:16:23;8.15;;;4.20;;
11279;SDS011;5696;50.928;6.960;2023-02-03T17:18:50;10.68;;;4.15;;
11279;SDS011;5696;50.928;6.960;2023-02-03T17:21:18;8.80;;;3.53;;
11279;SDS011;5696;50.928;6.960;2023-02-03T17:23:46;11.18;;;4.45;;
11279;SDS011;5696;50.928;6.960;2023-02-03T17:26:12;9.27;;;4.00;;
11279;SDS011;5696;50.928;6.960;2023-02-03T17:28:38;10.45;;;3.88;;
11279;SDS011;5696;50.928;6.960;2023-02-03T17:31:06;8.18;;;3.65;;
11279;SDS011;5696;50.928;6.960;2023-02-03T17:33:35;12.13;;;4.10;;
11279;SDS011;5696;50.928;6.960;2023-02-03T17:36:04;10.75;;;4.10;;
11279;SDS011;5696;50.928;6.960;2023-02-03T17:38:36;8.68;;;3.22;;
11279;SDS011;5696;50.928;6.960;2023-02-03T17:41:10;11.85;;;4.03;;
11279;SDS011;5696;50.928;6.960;2023-02-03T17:43:38;8.63;;;3.67;;
11279;SDS011;5696;50.928;6.960;2023-02-03T17:46:05;10.02;;;3.40;;
11279;SDS011;5696;50.928;6.960;2023-02-03T17:48:31;11.23;;;3.85;;
11279;SDS011;5696;50.928;6.960;2023-02-03T17:51:04;12.27;;;3.80;;
11279;SDS011;5696;50.928;6.960;2023-02-03T17:53:31;14.30;;;3.55;;
11279;SDS011;5696;50.928;6.960;2023-02-03T17:55:56;12.15;;;3.20;;
11279;SDS011;5696;50.928;6.960;2023-02-03T17:58:22;10.63;;;3.47;;
11279;SDS011;5696;50.928;6.960;2023-02-03T18:00:48;12.88;;;3.75;;
11279;SDS011;5696;50.928;6.960;2023-02-03T18:03:13;9.85;;;4.25;;
11279;SDS011;5696;50.928;6.960;2023-02-03T18:05:48;14.73;;;3.88;;
11279;SDS011;5696;50.928;6.960;2023-02-03T18:08:14;10.80;;;4.13;;
11279;SDS011;5696;50.928;6.960;2023-02-03T18:10:40;12.48;;;3.97;;
11279;SDS011;5696;50.928;6.960;2023-02-03T18:13:06;8.20;;;3.50;;
11279;SDS011;5696;50.928;6.960;2023-02-03T18:15:31;13.80;;;4.07;;
11279;SDS011;5696;50.928;6.960;2023-02-03T18:17:57;10.95;;;3.63;;
11279;SDS011;5696;50.928;6.960;2023-02-03T18:20:23;15.00;;;3.90;;
11279;SDS011;5696;50.928;6.960;2023-02-03T18:22:48;13.05;;;4.10;;
11279;SDS011;5696;50.928;6.960;2023-02-03T18:25:14;9.18;;;2.85;;
11279;SDS011;5696;50.928;6.960;2023-02-03T18:27:41;14.13;;;4.22;;
11279;SDS011;5696;50.928;6.960;2023-02-03T18:30:07;11.52;;;4.10;;
11279;SDS011;5696;50.928;6.960;2023-02-03T18:32:35;11.05;;;3.60;;
11279;SDS011;5696;50.928;6.960;2023-02-03T18:35:01;10.38;;;3.40;;
11279;SDS011;5696;50.928;6.960;2023-02-03T18:37:30;12.65;;;3.80;;
11279;SDS011;5696;50.928;6.960;2023-02-03T18:39:56;8.65;;;3.85;;
11279;SDS011;5696;50.928;6.960;2023-02-03T18:42:22;13.95;;;4.13;;
11279;SDS011;5696;50.928;6.960;2023-02-03T18:44:48;17.63;;;4.85;;
11279;SDS011;5696;50.928;6.960;2023-02-03T18:47:13;10.32;;;3.67;;
11279;SDS011;5696;50.928;6.960;2023-02-03T18:49:39;11.57;;;4.40;;
11279;SDS011;5696;50.928;6.960;2023-02-03T18:52:05;11.88;;;3.88;;
11279;SDS011;5696;50.928;6.960;2023-02-03T18:54:31;11.90;;;3.90;;
11279;SDS011;5696;50.928;6.960;2023-02-03T18:56:56;17.42;;;4.22;;
11279;SDS011;5696;50.928;6.960;2023-02-03T18:59:23;12.68;;;3.80;;
11279;SDS011;5696;50.928;6.960;2023-02-03T19:01:49;11.00;;;3.28;;
11279;SDS011;5696;50.928;6.960;2023-02-03T19:04:15;10.73;;;4.00;;
11279;SDS011;5696;50.928;6.960;2023-02-03T19:06:41;11.32;;;3.65;;
11279;SDS011;5696;50.928;6.960;2023-02-03T19:09:10;8.13;;;3.22;;
11279;SDS011;5696;50.928;6.960;2023-02-03T19:11:37;12.15;;;3.90;;
11279;SDS011;5696;50.928;6.960;2023-02-03T19:14:02;10.52;;;3.65;;
11279;SDS011;5696;50.928;6.960;2023-02-03T19:16:28;9.82;;;3.65;;
11279;SDS011;5696;50.928;6.960;2023-02-03T19:18:54;12.07;;;4.22;;
11279;SDS011;5696;50.928;6.960;2023-02-03T19:21:20;10.63;;;4.00;;
11279;SDS011;5696;50.928;6.960;2023-02-03T19:23:45;9.85;;;4.28;;
11279;SDS011;5696;50.928;6.960;2023-02-03T19:26:11;14.68;;;4.82;;
11279;SDS011;5696;50.928;6.960;2023-02-03T19:28:37;9.77;;;4.53;;
11279;SDS011;5696;50.928;6.960;2023-02-03T19:31:04;8.75;;;5.35;;
11279;SDS011;5696;50.928;6.960;2023-02-03T19:33:31;13.35;;;5.47;;
11279;SDS011;5696;50.928;6.960;2023-02-03T19:35:57;11.40;;;5.38;;
11279;SDS011;5696;50.928;6.960;2023-02-03T19:38:23;14.90;;;5.97;;
11279;SDS011;5696;50.928;6.960;2023-02-03T19:40:48;12.05;;;5.10;;
11279;SDS011;5696;50.928;6.960;2023-02-03T19:43:14;14.93;;;6.18;;
11279;SDS011;5696;50.928;6.960;2023-02-03T19:45:39;13.68;;;5.53;;
11279;SDS011;5696;50.928;6.960;2023-02-03T19:48:05;11.20;;;5.85;;
11279;SDS011;5696;50.928;6.960;2023-02-03T19:50:31;10.98;;;5.55;;
11279;SDS011;5696;50.928;6.960;2023-02-03T19:52:57;10.32;;;5.85;;
11279;SDS011;5696;50.928;6.960;2023-02-03T19:55:23;13.48;;;6.60;;
11279;SDS011;5696;50.928;6.960;2023-02-03T19:57:54;12.80;;;6.53;;
11279;SDS011;5696;50.928;6.960;2023-02-03T20:00:24;14.60;;;6.63;;
11279;SDS011;5696;50.928;6.960;2023-02-03T20:02:53;11.07;;;6.40;;
11279;SDS011;5696;50.928;6.960;2023-02-03T20:05:19;13.02;;;6.68;;
11279;SDS011;5696;50.928;6.960;2023-02-03T20:07:44;14.15;;;7.22;;
11279;SDS011;5696;50.928;6.960;2023-02-03T20:10:10;11.95;;;6.88;;
11279;SDS011;5696;50.928;6.960;2023-02-03T20:12:37;11.45;;;7.18;;
11279;SDS011;5696;50.928;6.960;2023-02-03T20:15:03;15.27;;;8.02;;
11279;SDS011;5696;50.928;6.960;2023-02-03T20:17:30;14.18;;;8.15;;
11279;SDS011;5696;50.928;6.960;2023-02-03T20:19:56;14.13;;;7.80;;
11279;SDS011;5696;50.928;6.960;2023-02-03T20:22:21;13.75;;;7.80;;
11279;SDS011;5696;50.928;6.960;2023-02-03T20:24:47;11.55;;;8.35;;
11279;SDS011;5696;50.928;6.960;2023-02-03T20:27:13;13.82;;;8.43;;
11279;SDS011;5696;50.928;6.960;2023-02-03T20:29:39;14.43;;;8.60;;
11279;SDS011;5696;50.928;6.960;2023-02-03T20:32:05;13.30;;;8.70;;
11279;SDS011;5696;50.928;6.960;2023-02-03T20:34:31;12.82;;;8.00;;
11279;SDS011;5696;50.928;6.960;2023-02-03T20:36:57;14.00;;;8.45;;
11279;SDS011;5696;50.928;6.960;2023-02-03T20:39:24;14.60;;;8.45;;
11279;SDS011;5696;50.928;6.960;2023-02-03T20:41:51;14.18;;;8.07;;
11279;SDS011;5696;50.928;6.960;2023-02-03T20:44:17;12.95;;;8.07;;
11279;SDS011;5696;50.928;6.960;2023-02-03T20:46:43;15.48;;;7.07;;
11279;SDS011;5696;50.928;6.960;2023-02-03T20:49:09;13.55;;;7.13;;
11279;SDS011;5696;50.928;6.960;2023-02-03T20:51:39;14.15;;;6.97;;
11279;SDS011;5696;50.928;6.960;2023-02-03T20:54:11;16.38;;;6.50;;
11279;SDS011;5696;50.928;6.960;2023-02-03T20:56:45;14.25;;;5.95;;
11279;SDS011;5696;50.928;6.960;2023-02-03T20:59:12;11.35;;;5.57;;
11279;SDS011;5696;50.928;6.960;2023-02-03T21:01:41;10.13;;;5.05;;
11279;SDS011;5696;50.928;6.960;2023-02-03T21:04:14;12.00;;;5.13;;
11279;SDS011;5696;50.928;6.960;2023-02-03T21:07:00;12.20;;;4.95;;
11279;SDS011;5696;50.928;6.960;2023-02-03T21:09:36;10.52;;;4.70;;
11279;SDS011;5696;50.928;6.960;2023-02-03T21:12:04;12.15;;;4.78;;
11279;SDS011;5696;50.928;6.960;2023-02-03T21:14:38;11.25;;;4.53;;
11279;SDS011;5696;50.928;6.960;2023-02-03T21:17:19;11.35;;;4.70;;
11279;SDS011;5696;50.928;6.960;2023-02-03T21:19:47;14.93;;;4.68;;
11279;SDS011;5696;50.928;6.960;2023-02-03T21:22:24;11.75;;;4.30;;
11279;SDS011;5696;50.928;6.960;2023-02-03T21:24:57;10.48;;;4.18;;
11279;SDS011;5696;50.928;6.960;2023-02-03T21:27:31;12.00;;;4.30;;
11279;SDS011;5696;50.928;6.960;2023-02-03T21:30:03;13.75;;;5.18;;
11279;SDS011;5696;50.928;6.960;2023-02-03T21:32:46;15.57;;;4.38;;
11279;SDS011;5696;50.928;6.960;2023-02-03T21:35:33;10.68;;;4.32;;
11279;SDS011;5696;50.928;6.960;2023-02-03T21:38:01;13.95;;;4.45;;
11279;SDS011;5696;50.928;6.960;2023-02-03T21:40:50;14.75;;;4.60;;
11279;SDS011;5696;50.928;6.960;2023-02-03T21:43:16;15.38;;;5.35;;
11279;SDS011;5696;50.928;6.960;2023-02-03T21:45:42;14.32;;;4.85;;
11279;SDS011;5696;50.928;6.960;2023-02-03T21:48:21;15.25;;;4.50;;
11279;SDS011;5696;50.928;6.960;2023-02-03T21:50:49;14.52;;;4.30;;
11279;SDS011;5696;50.928;6.960;2023-02-03T21:53:23;15.88;;;4.00;;
11279;SDS011;5696;50.928;6.960;2023-02-03T21:56:17;9.70;;;4.05;;
11279;SDS011;5696;50.928;6.960;2023-02-03T21:58:44;11.57;;;4.18;;
11279;SDS011;5696;50.928;6.960;2023-02-03T22:01:15;9.45;;;3.80;;
11279;SDS011;5696;50.928;6.960;2023-02-03T22:03:51;13.77;;;4.63;;
11279;SDS011;5696;50.928;6.960;2023-02-03T22:06:20;15.95;;;4.30;;
11279;SDS011;5696;50.928;6.960;2023-02-03T22:08:49;17.00;;;4.95;;
11279;SDS011;5696;50.928;6.960;2023-02-03T22:11:17;13.68;;;4.38;;
11279;SDS011;5696;50.928;6.960;2023-02-03T22:13:43;15.85;;;4.68;;
11279;SDS011;5696;50.928;6.960;2023-02-03T22:16:10;16.63;;;4.78;;
11279;SDS011;5696;50.928;6.960;2023-02-03T22:18:39;16.42;;;4.75;;
11279;SDS011;5696;50.928;6.960;2023-02-03T22:21:07;15.63;;;4.32;;
11279;SDS011;5696;50.928;6.960;2023-02-03T22:23:33;15.75;;;4.22;;
11279;SDS011;5696;50.928;6.960;2023-02-03T22:25:59;12.65;;;4.57;;
11279;SDS011;5696;50.928;6.960;2023-02-03T22:28:25;15.52;;;4.40;;
11279;SDS011;5696;50.928;6.960;2023-02-03T22:30:51;14.50;;;4.72;;
11279;SDS011;5696;50.928;6.960;2023-02-03T22:33:16;14.98;;;4.63;;
11279;SDS011;5696;50.928;6.960;2023-02-03T22:35:43;16.80;;;4.88;;
11279;SDS011;5696;50.928;6.960;2023-02-03T22:38:09;16.92;;;4.90;;
11279;SDS011;5696;50.928;6.960;2023-02-03T22:40:34;17.15;;;4.72;;
11279;SDS011;5696;50.928;6.960;2023-02-03T22:43:00;11.43;;;4.05;;
11279;SDS011;5696;50.928;6.960;2023-02-03T22:45:27;14.10;;;4.25;;
11279;SDS011;5696;50.928;6.960;2023-02-03T22:47:53;14.13;;;4.03;;
11279;SDS011;5696;50.928;6.960;2023-02-03T22:50:20;15.80;;;4.75;;
11279;SDS011;5696;50.928;6.960;2023-02-03T22:52:46;10.82;;;3.88;;
11279;SDS011;5696;50.928;6.960;2023-02-03T22:55:11;13.57;;;4.18;;
11279;SDS011;5696;50.928;6.960;2023-02-03T22:57:37;14.60;;;4.35;;
11279;SDS011;5696;50.928;6.960;2023-02-03T23:00:07;12.40;;;4.60;;
11279;SDS011;5696;50.928;6.960;2023-02-03T23:02:40;15.57;;;4.55;;
11279;SDS011;5696;50.928;6.960;2023-02-03T23:05:06;14.88;;;4.35;;
11279;SDS011;5696;50.928;6.960;2023-02-03T23:07:33;9.43;;;3.95;;
11279;SDS011;5696;50.928;6.960;2023-02-03T23:10:01;12.70;;;4.03;;
11279;SDS011;5696;50.928;6.960;2023-02-03T23:12:28;16.55;;;4.18;;
11279;SDS011;5696;50.928;6.960;2023-02-03T23:14:53;12.35;;;3.90;;
11279;SDS011;5696;50.928;6.960;2023-02-03T23:17:19;11.68;;;3.80;;
11279;SDS011;5696;50.928;6.960;2023-02-03T23:19:45;13.05;;;4.15;;
11279;SDS011;5696;50.928;6.960;2023-02-03T23:22:10;13.77;;;3.90;;
11279;SDS011;5696;50.928;6.960;2023-02-03T23:24:36;12.07;;;3.80;;
11279;SDS011;5696;50.928;6.960;2023-02-03T23:27:02;10.93;;;4.20;;
11279;SDS011;5696;50.928;6.960;2023-02-03T23:29:28;13.20;;;4.55;;
11279;SDS011;5696;50.928;6.960;2023-02-03T23:31:54;11.90;;;4.28;;
11279;SDS011;5696;50.928;6.960;2023-02-03T23:34:19;12.30;;;4.18;;
11279;SDS011;5696;50.928;6.960;2023-02-03T23:37:04;8.23;;;3.30;;
11279;SDS011;5696;50.928;6.960;2023-02-03T23:39:32;14.50;;;4.00;;